sensor_id;sensor_type;location;lat;lon;timestamp;temperature;humidity
4187;DHT22;2107;52.306;10.484;2023-04-25T00:02:10;7.70;99.90
4187;DHT22;2107;52.306;10.484;2023-04-25T00:04:37;7.70;99.90
4187;DHT22;2107;52.306;10.484;2023-04-25T00:07:04;7.60;99.90
4187;DHT22;2107;52.306;10.484;2023-04-25T00:09:32;7.60;99.90
4187;DHT22;2107;52.306;10.484;2023-04-25T00:12:00;7.60;99.90
4187;DHT22;2107;52.306;10.484;2023-04-25T00:14:28;7.60;99.90
4187;DHT22;2107;52.306;10.484;2023-04-25T00:16:55;7.60;99.90
4187;DHT22;2107;52.306;10.484;2023-04-25T00:19:21;7.60;99.90
4187;DHT22;2107;52.306;10.484;2023-04-25T00:21:48;7.60;99.90
4187;DHT22;2107;52.306;10.484;2023-04-25T00:24:15;7.60;99.90
4187;DHT22;2107;52.306;10.484;2023-04-25T00:26:42;7.50;99.90
4187;DHT22;2107;52.306;10.484;2023-04-25T00:29:10;7.50;99.90
4187;DHT22;2107;52.306;10.484;2023-04-25T00:31:37;7.40;99.90
4187;DHT22;2107;52.306;10.484;2023-04-25T00:34:06;7.40;99.90
4187;DHT22;2107;52.306;10.484;2023-04-25T00:36:33;7.40;99.90
4187;DHT22;2107;52.306;10.484;2023-04-25T00:39:00;7.40;99.90
4187;DHT22;2107;52.306;10.484;2023-04-25T00:41:28;7.40;99.90
4187;DHT22;2107;52.306;10.484;2023-04-25T00:43:56;7.40;99.90
4187;DHT22;2107;52.306;10.484;2023-04-25T00:46:24;7.40;99.90
4187;DHT22;2107;52.306;10.484;2023-04-25T00:48:51;7.40;99.90
4187;DHT22;2107;52.306;10.484;2023-04-25T00:51:20;7.30;99.90
4187;DHT22;2107;52.306;10.484;2023-04-25T00:53:49;7.40;99.90
4187;DHT22;2107;52.306;10.484;2023-04-25T00:56:16;7.40;99.90
4187;DHT22;2107;52.306;10.484;2023-04-25T00:58:43;7.40;99.90
4187;DHT22;2107;52.306;10.484;2023-04-25T01:01:10;7.40;99.90
4187;DHT22;2107;52.306;10.484;2023-04-25T01:03:40;7.40;99.90
4187;DHT22;2107;52.306;10.484;2023-04-25T01:06:08;7.40;99.90
4187;DHT22;2107;52.306;10.484;2023-04-25T01:08:36;7.40;99.90
4187;DHT22;2107;52.306;10.484;2023-04-25T01:11:03;7.40;99.90
4187;DHT22;2107;52.306;10.484;2023-04-25T01:13:31;7.40;99.90
4187;DHT22;2107;52.306;10.484;2023-04-25T01:15:58;7.40;99.90
4187;DHT22;2107;52.306;10.484;2023-04-25T01:18:25;7.30;99.90
4187;DHT22;2107;52.306;10.484;2023-04-25T01:20:54;7.30;99.90
4187;DHT22;2107;52.306;10.484;2023-04-25T01:23:22;7.30;99.90
4187;DHT22;2107;52.306;10.484;2023-04-25T01:25:50;7.30;99.90
4187;DHT22;2107;52.306;10.484;2023-04-25T01:28:17;7.30;99.90
4187;DHT22;2107;52.306;10.484;2023-04-25T01:30:45;7.20;99.90
4187;DHT22;2107;52.306;10.484;2023-04-25T01:33:14;7.20;99.90
4187;DHT22;2107;52.306;10.484;2023-04-25T01:35:42;7.20;99.90
4187;DHT22;2107;52.306;10.484;2023-04-25T01:38:08;7.30;99.90
4187;DHT22;2107;52.306;10.484;2023-04-25T01:40:39;7.20;99.90
4187;DHT22;2107;52.306;10.484;2023-04-25T01:43:06;7.20;99.90
4187;DHT22;2107;52.306;10.484;2023-04-25T01:45:36;7.20;99.90
4187;DHT22;2107;52.306;10.484;2023-04-25T01:48:05;7.20;99.90
4187;DHT22;2107;52.306;10.484;2023-04-25T01:50:32;7.20;99.90
4187;DHT22;2107;52.306;10.484;2023-04-25T01:52:58;7.10;99.90
4187;DHT22;2107;52.306;10.484;2023-04-25T01:55:26;7.10;99.90
4187;DHT22;2107;52.306;10.484;2023-04-25T01:57:54;7.20;99.90
4187;DHT22;2107;52.306;10.484;2023-04-25T02:00:22;7.20;99.90
4187;DHT22;2107;52.306;10.484;2023-04-25T02:02:49;7.20;99.90
4187;DHT22;2107;52.306;10.484;2023-04-25T02:05:16;7.30;99.90
4187;DHT22;2107;52.306;10.484;2023-04-25T02:07:44;7.20;99.90
4187;DHT22;2107;52.306;10.484;2023-04-25T02:10:11;7.20;99.90
4187;DHT22;2107;52.306;10.484;2023-04-25T02:12:38;7.20;99.90
4187;DHT22;2107;52.306;10.484;2023-04-25T02:15:07;7.20;99.90
4187;DHT22;2107;52.306;10.484;2023-04-25T02:17:33;7.20;99.90
4187;DHT22;2107;52.306;10.484;2023-04-25T02:20:00;7.20;99.90
4187;DHT22;2107;52.306;10.484;2023-04-25T02:22:28;7.10;99.90
4187;DHT22;2107;52.306;10.484;2023-04-25T02:24:55;7.10;99.90
4187;DHT22;2107;52.306;10.484;2023-04-25T02:27:22;7.10;99.90
4187;DHT22;2107;52.306;10.484;2023-04-25T02:29:49;7.10;99.90
4187;DHT22;2107;52.306;10.484;2023-04-25T02:32:17;7.00;99.90
4187;DHT22;2107;52.306;10.484;2023-04-25T02:34:44;7.00;99.90
4187;DHT22;2107;52.306;10.484;2023-04-25T02:37:12;7.10;99.90
4187;DHT22;2107;52.306;10.484;2023-04-25T02:39:39;7.10;99.90
4187;DHT22;2107;52.306;10.484;2023-04-25T02:42:05;7.00;99.90
4187;DHT22;2107;52.306;10.484;2023-04-25T02:44:32;7.00;99.90
4187;DHT22;2107;52.306;10.484;2023-04-25T02:46:59;7.00;99.90
4187;DHT22;2107;52.306;10.484;2023-04-25T02:49:27;7.10;99.90
4187;DHT22;2107;52.306;10.484;2023-04-25T02:51:54;7.10;99.90
4187;DHT22;2107;52.306;10.484;2023-04-25T02:54:21;7.10;99.90
4187;DHT22;2107;52.306;10.484;2023-04-25T02:56:48;7.00;99.90
4187;DHT22;2107;52.306;10.484;2023-04-25T02:59:15;7.00;99.90
4187;DHT22;2107;52.306;10.484;2023-04-25T03:01:42;6.90;99.90
4187;DHT22;2107;52.306;10.484;2023-04-25T03:04:08;6.90;99.90
4187;DHT22;2107;52.306;10.484;2023-04-25T03:06:37;6.90;99.90
4187;DHT22;2107;52.306;10.484;2023-04-25T03:09:03;6.80;99.90
4187;DHT22;2107;52.306;10.484;2023-04-25T03:11:30;6.70;99.90
4187;DHT22;2107;52.306;10.484;2023-04-25T03:13:57;6.70;99.90
4187;DHT22;2107;52.306;10.484;2023-04-25T03:16:24;6.80;99.90
4187;DHT22;2107;52.306;10.484;2023-04-25T03:18:51;6.80;99.90
4187;DHT22;2107;52.306;10.484;2023-04-25T03:21:18;6.70;99.90
4187;DHT22;2107;52.306;10.484;2023-04-25T03:23:46;6.60;99.90
4187;DHT22;2107;52.306;10.484;2023-04-25T03:26:13;6.60;99.90
4187;DHT22;2107;52.306;10.484;2023-04-25T03:28:40;6.50;99.90
4187;DHT22;2107;52.306;10.484;2023-04-25T03:31:06;6.50;99.90
4187;DHT22;2107;52.306;10.484;2023-04-25T03:33:33;6.50;99.90
4187;DHT22;2107;52.306;10.484;2023-04-25T03:36:00;6.50;99.90
4187;DHT22;2107;52.306;10.484;2023-04-25T03:38:27;6.40;99.90
4187;DHT22;2107;52.306;10.484;2023-04-25T03:40:55;6.40;99.90
4187;DHT22;2107;52.306;10.484;2023-04-25T03:43:22;6.40;99.90
4187;DHT22;2107;52.306;10.484;2023-04-25T03:45:49;6.40;99.90
4187;DHT22;2107;52.306;10.484;2023-04-25T03:48:16;6.30;99.90
4187;DHT22;2107;52.306;10.484;2023-04-25T03:50:43;6.10;99.90
4187;DHT22;2107;52.306;10.484;2023-04-25T03:53:10;6.00;99.90
4187;DHT22;2107;52.306;10.484;2023-04-25T03:55:36;5.90;99.90
4187;DHT22;2107;52.306;10.484;2023-04-25T03:58:05;6.00;99.90
4187;DHT22;2107;52.306;10.484;2023-04-25T04:00:34;5.90;99.90
4187;DHT22;2107;52.306;10.484;2023-04-25T04:03:00;5.90;99.90
4187;DHT22;2107;52.306;10.484;2023-04-25T04:05:27;5.90;99.90
4187;DHT22;2107;52.306;10.484;2023-04-25T04:07:55;5.90;99.90
4187;DHT22;2107;52.306;10.484;2023-04-25T04:10:22;5.80;99.90
4187;DHT22;2107;52.306;10.484;2023-04-25T04:12:48;5.80;99.90
4187;DHT22;2107;52.306;10.484;2023-04-25T04:15:16;5.70;99.90
4187;DHT22;2107;52.306;10.484;2023-04-25T04:17:43;5.80;99.90
4187;DHT22;2107;52.306;10.484;2023-04-25T04:20:10;5.80;99.90
4187;DHT22;2107;52.306;10.484;2023-04-25T04:22:37;5.80;99.90
4187;DHT22;2107;52.306;10.484;2023-04-25T04:25:05;5.80;99.90
4187;DHT22;2107;52.306;10.484;2023-04-25T04:27:32;5.80;99.90
4187;DHT22;2107;52.306;10.484;2023-04-25T04:29:59;5.80;99.90
4187;DHT22;2107;52.306;10.484;2023-04-25T04:32:28;5.80;99.90
4187;DHT22;2107;52.306;10.484;2023-04-25T04:34:56;5.90;99.90
4187;DHT22;2107;52.306;10.484;2023-04-25T04:37:23;5.90;99.90
4187;DHT22;2107;52.306;10.484;2023-04-25T04:39:50;5.90;99.90
4187;DHT22;2107;52.306;10.484;2023-04-25T04:42:17;5.80;99.90
4187;DHT22;2107;52.306;10.484;2023-04-25T04:44:44;5.90;99.90
4187;DHT22;2107;52.306;10.484;2023-04-25T04:47:12;5.90;99.90
4187;DHT22;2107;52.306;10.484;2023-04-25T04:49:42;5.90;99.90
4187;DHT22;2107;52.306;10.484;2023-04-25T04:52:08;6.00;99.90
4187;DHT22;2107;52.306;10.484;2023-04-25T04:54:35;6.00;99.90
4187;DHT22;2107;52.306;10.484;2023-04-25T04:57:02;6.00;99.90
4187;DHT22;2107;52.306;10.484;2023-04-25T04:59:29;6.10;99.90
4187;DHT22;2107;52.306;10.484;2023-04-25T05:01:56;6.10;99.90
4187;DHT22;2107;52.306;10.484;2023-04-25T05:04:23;6.30;99.90
4187;DHT22;2107;52.306;10.484;2023-04-25T05:06:51;6.40;99.90
4187;DHT22;2107;52.306;10.484;2023-04-25T05:09:18;6.50;99.90
4187;DHT22;2107;52.306;10.484;2023-04-25T05:11:45;6.50;99.90
4187;DHT22;2107;52.306;10.484;2023-04-25T05:14:12;6.50;99.90
4187;DHT22;2107;52.306;10.484;2023-04-25T05:16:39;6.60;99.90
4187;DHT22;2107;52.306;10.484;2023-04-25T05:19:06;6.60;99.90
4187;DHT22;2107;52.306;10.484;2023-04-25T05:21:33;6.40;99.90
4187;DHT22;2107;52.306;10.484;2023-04-25T05:24:01;6.60;99.90
4187;DHT22;2107;52.306;10.484;2023-04-25T05:26:28;6.60;99.90
4187;DHT22;2107;52.306;10.484;2023-04-25T05:28:56;6.80;99.90
4187;DHT22;2107;52.306;10.484;2023-04-25T05:31:23;7.20;99.90
4187;DHT22;2107;52.306;10.484;2023-04-25T05:33:50;7.50;99.90
4187;DHT22;2107;52.306;10.484;2023-04-25T05:36:18;7.60;99.90
4187;DHT22;2107;52.306;10.484;2023-04-25T05:38:45;7.90;99.90
4187;DHT22;2107;52.306;10.484;2023-04-25T05:41:13;7.90;99.90
4187;DHT22;2107;52.306;10.484;2023-04-25T05:43:40;8.00;99.90
4187;DHT22;2107;52.306;10.484;2023-04-25T05:46:10;7.90;99.90
4187;DHT22;2107;52.306;10.484;2023-04-25T05:48:37;7.90;99.90
4187;DHT22;2107;52.306;10.484;2023-04-25T05:51:04;7.80;99.90
4187;DHT22;2107;52.306;10.484;2023-04-25T05:53:31;7.80;99.90
4187;DHT22;2107;52.306;10.484;2023-04-25T05:55:58;7.90;99.90
4187;DHT22;2107;52.306;10.484;2023-04-25T05:58:26;8.00;99.90
4187;DHT22;2107;52.306;10.484;2023-04-25T06:00:53;8.00;99.90
4187;DHT22;2107;52.306;10.484;2023-04-25T06:03:20;8.00;99.90
4187;DHT22;2107;52.306;10.484;2023-04-25T06:05:48;8.00;99.90
4187;DHT22;2107;52.306;10.484;2023-04-25T06:08:14;7.90;99.90
4187;DHT22;2107;52.306;10.484;2023-04-25T06:10:41;7.80;99.90
4187;DHT22;2107;52.306;10.484;2023-04-25T06:13:08;7.90;99.90
4187;DHT22;2107;52.306;10.484;2023-04-25T06:15:36;8.50;99.90
4187;DHT22;2107;52.306;10.484;2023-04-25T06:18:03;8.90;99.90
4187;DHT22;2107;52.306;10.484;2023-04-25T06:20:30;9.20;99.90
4187;DHT22;2107;52.306;10.484;2023-04-25T06:22:57;9.80;99.90
4187;DHT22;2107;52.306;10.484;2023-04-25T06:25:24;10.50;99.90
4187;DHT22;2107;52.306;10.484;2023-04-25T06:27:50;10.70;99.90
4187;DHT22;2107;52.306;10.484;2023-04-25T06:30:17;11.20;99.90
4187;DHT22;2107;52.306;10.484;2023-04-25T06:32:51;11.60;99.90
4187;DHT22;2107;52.306;10.484;2023-04-25T06:35:18;11.60;99.90
4187;DHT22;2107;52.306;10.484;2023-04-25T06:37:45;11.30;99.90
4187;DHT22;2107;52.306;10.484;2023-04-25T06:40:12;11.60;99.90
4187;DHT22;2107;52.306;10.484;2023-04-25T06:42:40;11.60;99.90
4187;DHT22;2107;52.306;10.484;2023-04-25T06:45:08;11.50;99.90
4187;DHT22;2107;52.306;10.484;2023-04-25T06:47:35;11.00;99.90
4187;DHT22;2107;52.306;10.484;2023-04-25T06:50:03;10.90;99.90
4187;DHT22;2107;52.306;10.484;2023-04-25T06:52:31;10.70;99.90
4187;DHT22;2107;52.306;10.484;2023-04-25T06:54:58;10.80;99.90
4187;DHT22;2107;52.306;10.484;2023-04-25T06:57:25;11.00;99.90
4187;DHT22;2107;52.306;10.484;2023-04-25T06:59:52;10.90;99.90
4187;DHT22;2107;52.306;10.484;2023-04-25T07:02:18;11.70;99.90
4187;DHT22;2107;52.306;10.484;2023-04-25T07:04:47;11.80;99.90
4187;DHT22;2107;52.306;10.484;2023-04-25T07:07:15;11.80;98.10
4187;DHT22;2107;52.306;10.484;2023-04-25T07:09:42;11.70;97.50
4187;DHT22;2107;52.306;10.484;2023-04-25T07:12:09;11.50;96.70
4187;DHT22;2107;52.306;10.484;2023-04-25T07:14:36;11.50;95.90
4187;DHT22;2107;52.306;10.484;2023-04-25T07:17:03;11.30;96.20
4187;DHT22;2107;52.306;10.484;2023-04-25T07:19:32;11.40;95.90
4187;DHT22;2107;52.306;10.484;2023-04-25T07:21:58;11.90;96.90
4187;DHT22;2107;52.306;10.484;2023-04-25T07:24:27;12.20;94.30
4187;DHT22;2107;52.306;10.484;2023-04-25T07:26:54;12.10;95.30
4187;DHT22;2107;52.306;10.484;2023-04-25T07:29:20;12.00;93.20
4187;DHT22;2107;52.306;10.484;2023-04-25T07:31:47;11.90;93.40
4187;DHT22;2107;52.306;10.484;2023-04-25T07:34:14;11.60;91.30
4187;DHT22;2107;52.306;10.484;2023-04-25T07:36:41;11.90;91.20
4187;DHT22;2107;52.306;10.484;2023-04-25T07:39:08;12.00;91.30
4187;DHT22;2107;52.306;10.484;2023-04-25T07:41:36;12.20;90.90
4187;DHT22;2107;52.306;10.484;2023-04-25T07:44:03;12.20;90.60
4187;DHT22;2107;52.306;10.484;2023-04-25T07:46:30;12.60;90.80
4187;DHT22;2107;52.306;10.484;2023-04-25T07:48:57;13.20;90.10
4187;DHT22;2107;52.306;10.484;2023-04-25T07:51:23;13.10;82.90
4187;DHT22;2107;52.306;10.484;2023-04-25T07:53:51;12.60;86.00
4187;DHT22;2107;52.306;10.484;2023-04-25T07:56:18;12.20;86.10
4187;DHT22;2107;52.306;10.484;2023-04-25T07:58:46;12.50;85.10
4187;DHT22;2107;52.306;10.484;2023-04-25T08:01:13;12.30;81.60
4187;DHT22;2107;52.306;10.484;2023-04-25T08:03:40;12.30;82.00
4187;DHT22;2107;52.306;10.484;2023-04-25T08:06:07;12.20;82.20
4187;DHT22;2107;52.306;10.484;2023-04-25T08:08:33;12.40;83.80
4187;DHT22;2107;52.306;10.484;2023-04-25T08:11:00;11.90;81.80
4187;DHT22;2107;52.306;10.484;2023-04-25T08:13:27;12.00;84.50
4187;DHT22;2107;52.306;10.484;2023-04-25T08:15:55;12.10;85.10
4187;DHT22;2107;52.306;10.484;2023-04-25T08:18:22;12.70;84.10
4187;DHT22;2107;52.306;10.484;2023-04-25T08:20:49;12.70;83.30
4187;DHT22;2107;52.306;10.484;2023-04-25T08:23:16;13.00;81.90
4187;DHT22;2107;52.306;10.484;2023-04-25T08:25:43;13.00;84.50
4187;DHT22;2107;52.306;10.484;2023-04-25T08:28:10;13.30;85.60
4187;DHT22;2107;52.306;10.484;2023-04-25T08:30:37;13.30;82.20
4187;DHT22;2107;52.306;10.484;2023-04-25T08:33:05;12.80;83.60
4187;DHT22;2107;52.306;10.484;2023-04-25T08:35:33;12.70;84.00
4187;DHT22;2107;52.306;10.484;2023-04-25T08:38:00;12.00;85.10
4187;DHT22;2107;52.306;10.484;2023-04-25T08:40:28;11.50;86.20
4187;DHT22;2107;52.306;10.484;2023-04-25T08:42:57;11.10;88.60
4187;DHT22;2107;52.306;10.484;2023-04-25T08:45:25;11.20;90.50
4187;DHT22;2107;52.306;10.484;2023-04-25T08:47:53;11.00;90.50
4187;DHT22;2107;52.306;10.484;2023-04-25T08:50:24;11.00;91.50
4187;DHT22;2107;52.306;10.484;2023-04-25T08:52:53;11.50;92.50
4187;DHT22;2107;52.306;10.484;2023-04-25T08:55:21;11.90;91.90
4187;DHT22;2107;52.306;10.484;2023-04-25T08:57:48;12.00;90.00
4187;DHT22;2107;52.306;10.484;2023-04-25T09:00:16;11.90;89.20
4187;DHT22;2107;52.306;10.484;2023-04-25T09:02:45;11.90;89.50
4187;DHT22;2107;52.306;10.484;2023-04-25T09:05:13;11.50;85.90
4187;DHT22;2107;52.306;10.484;2023-04-25T09:07:41;11.40;86.60
4187;DHT22;2107;52.306;10.484;2023-04-25T09:10:09;11.00;84.40
4187;DHT22;2107;52.306;10.484;2023-04-25T09:12:36;11.00;84.00
4187;DHT22;2107;52.306;10.484;2023-04-25T09:15:05;11.80;86.00
4187;DHT22;2107;52.306;10.484;2023-04-25T09:17:32;12.60;84.40
4187;DHT22;2107;52.306;10.484;2023-04-25T09:20:07;12.90;80.70
4187;DHT22;2107;52.306;10.484;2023-04-25T09:22:34;12.90;75.90
4187;DHT22;2107;52.306;10.484;2023-04-25T09:25:07;12.50;74.60
4187;DHT22;2107;52.306;10.484;2023-04-25T09:27:34;12.10;74.30
4187;DHT22;2107;52.306;10.484;2023-04-25T09:30:02;11.90;74.10
4187;DHT22;2107;52.306;10.484;2023-04-25T09:32:30;11.80;74.90
4187;DHT22;2107;52.306;10.484;2023-04-25T09:34:58;11.80;74.20
4187;DHT22;2107;52.306;10.484;2023-04-25T09:37:27;11.90;75.20
4187;DHT22;2107;52.306;10.484;2023-04-25T09:39:57;12.00;75.60
4187;DHT22;2107;52.306;10.484;2023-04-25T09:42:27;12.10;77.50
4187;DHT22;2107;52.306;10.484;2023-04-25T09:44:55;11.80;74.40
4187;DHT22;2107;52.306;10.484;2023-04-25T09:47:23;11.70;74.90
4187;DHT22;2107;52.306;10.484;2023-04-25T09:49:51;11.90;76.20
4187;DHT22;2107;52.306;10.484;2023-04-25T09:52:19;11.90;74.20
4187;DHT22;2107;52.306;10.484;2023-04-25T09:54:48;11.50;74.60
4187;DHT22;2107;52.306;10.484;2023-04-25T09:57:16;11.30;76.60
4187;DHT22;2107;52.306;10.484;2023-04-25T09:59:45;11.20;76.50
4187;DHT22;2107;52.306;10.484;2023-04-25T10:02:13;11.30;79.30
4187;DHT22;2107;52.306;10.484;2023-04-25T10:04:41;11.40;77.70
4187;DHT22;2107;52.306;10.484;2023-04-25T10:07:08;11.70;79.90
4187;DHT22;2107;52.306;10.484;2023-04-25T10:09:37;11.80;79.00
4187;DHT22;2107;52.306;10.484;2023-04-25T10:12:05;11.70;77.60
4187;DHT22;2107;52.306;10.484;2023-04-25T10:14:33;11.70;75.30
4187;DHT22;2107;52.306;10.484;2023-04-25T10:17:01;11.50;77.00
4187;DHT22;2107;52.306;10.484;2023-04-25T10:19:28;11.50;77.60
4187;DHT22;2107;52.306;10.484;2023-04-25T10:22:02;11.30;76.70
4187;DHT22;2107;52.306;10.484;2023-04-25T10:24:30;11.30;75.50
4187;DHT22;2107;52.306;10.484;2023-04-25T10:26:57;11.20;76.00
4187;DHT22;2107;52.306;10.484;2023-04-25T10:29:25;11.40;75.70
4187;DHT22;2107;52.306;10.484;2023-04-25T10:31:52;11.20;76.90
4187;DHT22;2107;52.306;10.484;2023-04-25T10:34:24;11.00;76.90
4187;DHT22;2107;52.306;10.484;2023-04-25T10:37:03;11.10;79.50
4187;DHT22;2107;52.306;10.484;2023-04-25T10:39:30;12.20;79.20
4187;DHT22;2107;52.306;10.484;2023-04-25T10:42:02;13.70;77.90
4187;DHT22;2107;52.306;10.484;2023-04-25T10:44:29;13.80;70.60
4187;DHT22;2107;52.306;10.484;2023-04-25T10:46:57;13.70;65.40
4187;DHT22;2107;52.306;10.484;2023-04-25T10:49:33;13.60;62.70
4187;DHT22;2107;52.306;10.484;2023-04-25T10:52:24;13.20;62.10
4187;DHT22;2107;52.306;10.484;2023-04-25T10:54:53;12.60;62.90
4187;DHT22;2107;52.306;10.484;2023-04-25T10:57:36;12.20;64.20
4187;DHT22;2107;52.306;10.484;2023-04-25T11:00:09;12.40;65.60
4187;DHT22;2107;52.306;10.484;2023-04-25T11:02:43;12.20;66.00
4187;DHT22;2107;52.306;10.484;2023-04-25T11:05:23;12.10;68.10
4187;DHT22;2107;52.306;10.484;2023-04-25T11:07:53;12.00;67.20
4187;DHT22;2107;52.306;10.484;2023-04-25T11:10:25;11.90;67.10
4187;DHT22;2107;52.306;10.484;2023-04-25T11:12:52;11.80;67.20
4187;DHT22;2107;52.306;10.484;2023-04-25T11:15:19;11.80;70.60
4187;DHT22;2107;52.306;10.484;2023-04-25T11:17:46;12.20;70.90
4187;DHT22;2107;52.306;10.484;2023-04-25T11:20:13;12.20;70.30
4187;DHT22;2107;52.306;10.484;2023-04-25T11:22:44;12.10;70.40
4187;DHT22;2107;52.306;10.484;2023-04-25T11:25:13;11.70;68.80
4187;DHT22;2107;52.306;10.484;2023-04-25T11:27:49;11.70;68.90
4187;DHT22;2107;52.306;10.484;2023-04-25T11:30:17;11.30;69.70
4187;DHT22;2107;52.306;10.484;2023-04-25T11:32:44;10.80;69.60
4187;DHT22;2107;52.306;10.484;2023-04-25T11:35:12;10.40;70.20
4187;DHT22;2107;52.306;10.484;2023-04-25T11:37:39;10.20;72.70
4187;DHT22;2107;52.306;10.484;2023-04-25T11:40:08;9.80;77.30
4187;DHT22;2107;52.306;10.484;2023-04-25T11:42:38;9.80;79.60
4187;DHT22;2107;52.306;10.484;2023-04-25T11:45:06;9.80;79.80
4187;DHT22;2107;52.306;10.484;2023-04-25T11:47:33;10.10;78.80
4187;DHT22;2107;52.306;10.484;2023-04-25T11:50:01;10.30;78.90
4187;DHT22;2107;52.306;10.484;2023-04-25T11:52:38;10.60;80.00
4187;DHT22;2107;52.306;10.484;2023-04-25T11:55:08;11.10;80.30
4187;DHT22;2107;52.306;10.484;2023-04-25T11:57:38;11.30;78.70
4187;DHT22;2107;52.306;10.484;2023-04-25T12:00:10;11.60;78.60
4187;DHT22;2107;52.306;10.484;2023-04-25T12:02:41;12.00;77.40
4187;DHT22;2107;52.306;10.484;2023-04-25T12:05:09;12.70;76.10
4187;DHT22;2107;52.306;10.484;2023-04-25T12:07:35;12.80;72.80
4187;DHT22;2107;52.306;10.484;2023-04-25T12:10:09;13.10;68.60
4187;DHT22;2107;52.306;10.484;2023-04-25T12:12:38;13.40;69.80
4187;DHT22;2107;52.306;10.484;2023-04-25T12:15:12;13.80;66.60
4187;DHT22;2107;52.306;10.484;2023-04-25T12:17:41;14.30;66.20
4187;DHT22;2107;52.306;10.484;2023-04-25T12:20:10;14.50;64.30
4187;DHT22;2107;52.306;10.484;2023-04-25T12:22:37;14.40;62.70
4187;DHT22;2107;52.306;10.484;2023-04-25T12:25:05;14.40;62.00
4187;DHT22;2107;52.306;10.484;2023-04-25T12:27:35;14.80;62.50
4187;DHT22;2107;52.306;10.484;2023-04-25T12:30:03;15.00;63.20
4187;DHT22;2107;52.306;10.484;2023-04-25T12:32:30;15.00;59.80
4187;DHT22;2107;52.306;10.484;2023-04-25T12:34:57;14.50;59.70
4187;DHT22;2107;52.306;10.484;2023-04-25T12:37:24;14.30;59.20
4187;DHT22;2107;52.306;10.484;2023-04-25T12:39:51;13.80;59.40
4187;DHT22;2107;52.306;10.484;2023-04-25T12:42:18;13.20;61.30
4187;DHT22;2107;52.306;10.484;2023-04-25T12:44:46;13.00;62.80
4187;DHT22;2107;52.306;10.484;2023-04-25T12:47:14;12.80;66.00
4187;DHT22;2107;52.306;10.484;2023-04-25T12:49:40;12.30;67.10
4187;DHT22;2107;52.306;10.484;2023-04-25T12:52:07;11.80;64.20
4187;DHT22;2107;52.306;10.484;2023-04-25T12:54:34;11.80;64.70
4187;DHT22;2107;52.306;10.484;2023-04-25T12:57:01;11.60;65.60
4187;DHT22;2107;52.306;10.484;2023-04-25T12:59:28;11.50;66.70
4187;DHT22;2107;52.306;10.484;2023-04-25T13:01:57;11.40;69.60
4187;DHT22;2107;52.306;10.484;2023-04-25T13:04:24;11.40;70.50
4187;DHT22;2107;52.306;10.484;2023-04-25T13:06:50;11.80;70.00
4187;DHT22;2107;52.306;10.484;2023-04-25T13:09:17;12.90;70.60
4187;DHT22;2107;52.306;10.484;2023-04-25T13:11:44;13.70;68.80
4187;DHT22;2107;52.306;10.484;2023-04-25T13:14:11;14.50;68.00
4187;DHT22;2107;52.306;10.484;2023-04-25T13:16:38;15.10;66.00
4187;DHT22;2107;52.306;10.484;2023-04-25T13:19:06;15.70;63.60
4187;DHT22;2107;52.306;10.484;2023-04-25T13:21:36;17.10;63.90
4187;DHT22;2107;52.306;10.484;2023-04-25T13:24:03;17.90;60.70
4187;DHT22;2107;52.306;10.484;2023-04-25T13:26:30;16.80;58.00
4187;DHT22;2107;52.306;10.484;2023-04-25T13:28:57;15.90;60.20
4187;DHT22;2107;52.306;10.484;2023-04-25T13:31:25;15.30;61.30
4187;DHT22;2107;52.306;10.484;2023-04-25T13:33:52;14.40;62.70
4187;DHT22;2107;52.306;10.484;2023-04-25T13:36:20;14.00;62.40
4187;DHT22;2107;52.306;10.484;2023-04-25T13:38:47;14.10;63.90
4187;DHT22;2107;52.306;10.484;2023-04-25T13:41:14;13.70;61.70
4187;DHT22;2107;52.306;10.484;2023-04-25T13:43:45;13.50;62.90
4187;DHT22;2107;52.306;10.484;2023-04-25T13:46:13;12.90;64.00
4187;DHT22;2107;52.306;10.484;2023-04-25T13:48:41;13.20;63.90
4187;DHT22;2107;52.306;10.484;2023-04-25T13:51:13;13.10;63.50
4187;DHT22;2107;52.306;10.484;2023-04-25T13:53:41;13.10;61.90
4187;DHT22;2107;52.306;10.484;2023-04-25T13:56:08;13.60;60.90
4187;DHT22;2107;52.306;10.484;2023-04-25T13:58:36;14.50;58.40
4187;DHT22;2107;52.306;10.484;2023-04-25T14:01:03;15.40;56.60
4187;DHT22;2107;52.306;10.484;2023-04-25T14:03:30;16.60;54.60
4187;DHT22;2107;52.306;10.484;2023-04-25T14:05:57;17.50;51.90
4187;DHT22;2107;52.306;10.484;2023-04-25T14:08:24;17.60;48.90
4187;DHT22;2107;52.306;10.484;2023-04-25T14:10:52;15.90;47.70
4187;DHT22;2107;52.306;10.484;2023-04-25T14:13:19;13.70;49.40
4187;DHT22;2107;52.306;10.484;2023-04-25T14:15:46;13.70;53.20
4187;DHT22;2107;52.306;10.484;2023-04-25T14:18:13;13.60;52.60
4187;DHT22;2107;52.306;10.484;2023-04-25T14:20:39;13.50;54.10
4187;DHT22;2107;52.306;10.484;2023-04-25T14:23:06;12.50;57.70
4187;DHT22;2107;52.306;10.484;2023-04-25T14:25:33;12.90;58.20
4187;DHT22;2107;52.306;10.484;2023-04-25T14:28:03;14.60;59.40
4187;DHT22;2107;52.306;10.484;2023-04-25T14:30:30;16.30;58.20
4187;DHT22;2107;52.306;10.484;2023-04-25T14:32:57;16.00;54.70
4187;DHT22;2107;52.306;10.484;2023-04-25T14:35:23;16.90;54.80
4187;DHT22;2107;52.306;10.484;2023-04-25T14:37:50;17.70;53.40
4187;DHT22;2107;52.306;10.484;2023-04-25T14:40:17;17.50;52.40
4187;DHT22;2107;52.306;10.484;2023-04-25T14:42:47;18.50;52.60
4187;DHT22;2107;52.306;10.484;2023-04-25T14:45:15;18.60;50.80
4187;DHT22;2107;52.306;10.484;2023-04-25T14:47:43;19.90;51.70
4187;DHT22;2107;52.306;10.484;2023-04-25T14:50:10;19.20;50.50
4187;DHT22;2107;52.306;10.484;2023-04-25T14:52:37;17.90;52.60
4187;DHT22;2107;52.306;10.484;2023-04-25T14:55:04;17.10;55.60
4187;DHT22;2107;52.306;10.484;2023-04-25T14:57:31;16.40;58.00
4187;DHT22;2107;52.306;10.484;2023-04-25T14:59:58;15.10;59.00
4187;DHT22;2107;52.306;10.484;2023-04-25T15:02:26;14.40;60.80
4187;DHT22;2107;52.306;10.484;2023-04-25T15:04:54;12.70;65.30
4187;DHT22;2107;52.306;10.484;2023-04-25T15:07:21;12.10;68.20
4187;DHT22;2107;52.306;10.484;2023-04-25T15:09:48;11.50;70.80
4187;DHT22;2107;52.306;10.484;2023-04-25T15:12:15;11.40;70.80
4187;DHT22;2107;52.306;10.484;2023-04-25T15:14:42;11.50;72.90
4187;DHT22;2107;52.306;10.484;2023-04-25T15:17:09;11.10;74.00
4187;DHT22;2107;52.306;10.484;2023-04-25T15:19:40;11.30;76.30
4187;DHT22;2107;52.306;10.484;2023-04-25T15:22:07;12.00;74.30
4187;DHT22;2107;52.306;10.484;2023-04-25T15:24:34;14.00;73.10
4187;DHT22;2107;52.306;10.484;2023-04-25T15:27:01;16.80;68.00
4187;DHT22;2107;52.306;10.484;2023-04-25T15:29:29;18.70;61.10
4187;DHT22;2107;52.306;10.484;2023-04-25T15:31:57;19.00;56.60
4187;DHT22;2107;52.306;10.484;2023-04-25T15:34:23;19.50;54.10
4187;DHT22;2107;52.306;10.484;2023-04-25T15:36:52;17.70;53.50
4187;DHT22;2107;52.306;10.484;2023-04-25T15:39:19;16.60;55.20
4187;DHT22;2107;52.306;10.484;2023-04-25T15:41:46;15.90;57.10
4187;DHT22;2107;52.306;10.484;2023-04-25T15:44:13;16.10;54.00
4187;DHT22;2107;52.306;10.484;2023-04-25T15:46:40;15.40;55.30
4187;DHT22;2107;52.306;10.484;2023-04-25T15:49:06;14.50;56.30
4187;DHT22;2107;52.306;10.484;2023-04-25T15:51:34;13.00;58.40
4187;DHT22;2107;52.306;10.484;2023-04-25T15:54:03;12.20;60.70
4187;DHT22;2107;52.306;10.484;2023-04-25T15:56:30;11.40;67.40